| time (UTC) | temp F | wind direction | speed MPH | gust MPH | rain 1hr in | rain 24hr in | rain mn in | humidity % | barometer mb |
| 20260510214126 | 65 | 138 | 1.0 | 2.0 | 0.00 | 0.00 | 0.00 | 77 | 1007.3 |
| 20260510213623 | 66 | 20 | 3.0 | 3.0 | 0.00 | 0.00 | 0.00 | 81 | 1007.3 |
| 20260510213119 | 67 | 42 | 2.0 | 2.0 | 0.00 | 0.00 | 0.00 | 84 | 1007.3 |
| 20260510212616 | 66 | 179 | 0.0 | 2.0 | 0.00 | 0.00 | 0.00 | 82 | 1007.3 |
| 20260510212108 | 66 | 176 | 0.0 | 1.0 | 0.00 | 0.00 | 0.00 | 82 | 1007.3 |
| 20260510211604 | 66 | 158 | 2.0 | 2.0 | 0.00 | 0.00 | 0.00 | 81 | 1006.9 |
| 20260510211104 | 67 | 196 | 0.0 | 2.0 | 0.00 | 0.00 | 0.00 | 79 | 1006.9 |
| 20260510210601 | 67 | 230 | 1.0 | 4.0 | 0.00 | 0.00 | 0.00 | 78 | 1006.9 |
| 20260510210056 | 68 | 213 | 1.0 | 3.0 | 0.00 | 0.00 | 0.00 | 77 | 1007.3 |
| 20260510205555 | 68 | 132 | 1.0 | 2.0 | 0.00 | 0.00 | 0.00 | 78 | 1006.6 |
| 20260510205051 | 68 | 233 | 1.0 | 2.0 | 0.00 | 0.00 | 0.00 | 78 | 1006.6 |
| 20260510204548 | 68 | 179 | 0.0 | 2.0 | 0.00 | 0.00 | 0.00 | 79 | 1006.6 |
| 20260510204045 | 69 | 149 | 0.0 | 1.0 | 0.00 | 0.00 | 0.00 | 73 | 1006.6 |
| 20260510203542 | 69 | 152 | 0.0 | 2.0 | 0.00 | 0.00 | 0.00 | 76 | 1006.6 |
| 20260510203038 | 69 | 94 | 2.0 | 8.0 | 0.00 | 0.00 | 0.00 | 70 | 1006.6 |
| 20260510202537 | 69 | 258 | 1.0 | 1.0 | 0.00 | 0.00 | 0.00 | 73 | 1006.6 |
| 20260510202034 | 69 | 136 | 1.0 | 3.0 | 0.00 | 0.00 | 0.00 | 72 | 1006.6 |
| 20260510201531 | 70 | 208 | 0.0 | 1.0 | 0.00 | 0.00 | 0.00 | 74 | 1006.6 |
| 20260510201028 | 69 | 256 | 1.0 | 2.0 | 0.00 | 0.00 | 0.00 | 71 | 1006.6 |
| 20260510200524 | 69 | 163 | 0.0 | 1.0 | 0.00 | 0.00 | 0.00 | 76 | 1006.6 |
| 20260510200022 | 68 | 183 | 1.0 | 4.0 | 0.00 | 0.00 | 0.00 | 74 | 1006.6 |
| 20260510195519 | 69 | 207 | 2.0 | 4.0 | 0.00 | 0.00 | 0.00 | 72 | 1006.9 |
| 20260510195014 | 68 | 263 | 2.0 | 4.0 | 0.00 | 0.00 | 0.00 | 75 | 1006.9 |
| 20260510194510 | 68 | 197 | 1.0 | 2.0 | 0.00 | 0.00 | 0.00 | 76 | 1006.6 |
| 20260510194006 | 67 | 167 | 0.0 | 0.0 | 0.00 | 0.00 | 0.00 | 80 | 1006.9 |
| 20260510193501 | 66 | 187 | 1.0 | 2.0 | 0.00 | 0.00 | 0.00 | 80 | 1006.9 |
| 20260510192957 | 66 | 162 | 0.0 | 2.0 | 0.00 | 0.00 | 0.00 | 81 | 1006.6 |
| 20260510192452 | 66 | 145 | 0.0 | 0.0 | 0.00 | 0.00 | 0.00 | 81 | 1006.9 |
| 20260510191948 | 65 | 242 | 1.0 | 2.0 | 0.00 | 0.00 | 0.00 | 82 | 1006.9 |
| 20260510191444 | 66 | 149 | 1.0 | 2.0 | 0.00 | 0.00 | 0.00 | 80 | 1006.9 |
| 20260510190942 | 66 | 228 | 2.0 | 2.0 | 0.00 | 0.00 | 0.00 | 81 | 1006.9 |
| 20260510190439 | 65 | 163 | 0.0 | 2.0 | 0.00 | 0.00 | 0.00 | 83 | 1007.3 |
| 20260510185936 | 65 | 162 | 1.0 | 2.0 | 0.00 | 0.00 | 0.00 | 81 | 1007.3 |
| 20260510185433 | 66 | 157 | 2.0 | 2.0 | 0.00 | 0.00 | 0.00 | 81 | 1007.3 |
| 20260510184930 | 66 | 149 | 1.0 | 2.0 | 0.00 | 0.00 | 0.00 | 79 | 1007.3 |
| 20260510184427 | 67 | 185 | 0.0 | 2.0 | 0.00 | 0.00 | 0.00 | 78 | 1006.9 |
| 20260510183926 | 67 | 168 | 0.0 | 2.0 | 0.00 | 0.00 | 0.00 | 77 | 1006.9 |
| 20260510183424 | 67 | 210 | 2.0 | 4.0 | 0.00 | 0.00 | 0.00 | 79 | 1006.9 |
| 20260510182918 | 67 | 169 | 2.0 | 2.0 | 0.00 | 0.00 | 0.00 | 78 | 1006.9 |
| 20260510182415 | 68 | 188 | 0.0 | 1.0 | 0.00 | 0.00 | 0.00 | 78 | 1006.9 |
| 20260510181911 | 69 | 200 | 0.0 | 2.0 | 0.00 | 0.00 | 0.00 | 72 | 1006.9 |
| 20260510181408 | 68 | 169 | 1.0 | 4.0 | 0.00 | 0.00 | 0.00 | 73 | 1006.9 |
| 20260510180905 | 68 | 214 | 1.0 | 3.0 | 0.00 | 0.00 | 0.00 | 74 | 1006.9 |
| 20260510180402 | 69 | 315 | 2.0 | 3.0 | 0.00 | 0.00 | 0.00 | 75 | 1006.9 |
| 20260510175859 | 69 | 129 | 4.0 | 7.0 | 0.00 | 0.00 | 0.00 | 72 | 1007.3 |
| 20260510175354 | 68 | 145 | 1.0 | 2.0 | 0.00 | 0.00 | 0.00 | 76 | 1006.9 |
| 20260510174850 | 68 | 170 | 1.0 | 4.0 | 0.00 | 0.00 | 0.00 | 75 | 1007.3 |
| 20260510174349 | 68 | 239 | 1.0 | 2.0 | 0.00 | 0.00 | 0.00 | 77 | 1006.9 |
| 20260510173845 | 66 | 136 | 2.0 | 3.0 | 0.00 | 0.00 | 0.00 | 79 | 1007.3 |
| 20260510173341 | 66 | 158 | 5.0 | 6.0 | 0.00 | 0.00 | 0.00 | 79 | 1007.3 |
| 20260510172837 | 67 | 243 | 3.0 | 3.0 | 0.00 | 0.00 | 0.00 | 77 | 1007.3 |
| 20260510172333 | 68 | 238 | 1.0 | 3.0 | 0.00 | 0.00 | 0.00 | 74 | 1007.3 |
| 20260510171829 | 66 | 173 | 0.0 | 1.0 | 0.00 | 0.00 | 0.00 | 78 | 1007.3 |
| 20260510171327 | 65 | 125 | 3.0 | 3.0 | 0.00 | 0.00 | 0.00 | 81 | 1006.9 |
| 20260510170824 | 65 | 157 | 2.0 | 4.0 | 0.00 | 0.00 | 0.00 | 80 | 1006.9 |
| 20260510170320 | 64 | 238 | 3.0 | 4.0 | 0.00 | 0.00 | 0.00 | 80 | 1006.9 |
| 20260510165814 | 63 | 253 | 3.0 | 6.0 | 0.00 | 0.00 | 0.00 | 82 | 1007.3 |
| 20260510165312 | 64 | 170 | 2.0 | 4.0 | 0.00 | 0.00 | 0.00 | 82 | 1007.3 |
| 20260510164809 | 65 | 237 | 3.0 | 4.0 | 0.00 | 0.00 | 0.00 | 80 | 1007.3 |
| 20260510164307 | 64 | 216 | 3.0 | 6.0 | 0.00 | 0.00 | 0.00 | 82 | 1007.3 |
| 20260510163806 | 63 | 235 | 3.0 | 8.0 | 0.00 | 0.00 | 0.00 | 84 | 1007.3 |
| 20260510163303 | 64 | 160 | 2.0 | 3.0 | 0.00 | 0.00 | 0.00 | 85 | 1007.3 |
| 20260510162802 | 63 | 223 | 3.0 | 4.0 | 0.00 | 0.00 | 0.00 | 83 | 1007.3 |
| 20260510162300 | 62 | 152 | 1.0 | 2.0 | 0.00 | 0.00 | 0.00 | 89 | 1007.3 |
| 20260510161755 | 61 | 146 | 1.0 | 2.0 | 0.00 | 0.00 | 0.00 | 87 | 1007.6 |
| 20260510161251 | 61 | 178 | 0.0 | 3.0 | 0.00 | 0.00 | 0.00 | 89 | 1007.3 |
| 20260510160749 | 61 | 158 | 0.0 | 3.0 | 0.00 | 0.00 | 0.00 | 88 | 1007.3 |
| 20260510160245 | 61 | 209 | 3.0 | 3.0 | 0.00 | 0.00 | 0.00 | 90 | 1007.3 |
| 20260510155740 | 60 | 146 | 2.0 | 2.0 | 0.00 | 0.00 | 0.00 | 91 | 1007.3 |
| 20260510155236 | 60 | 166 | 1.0 | 2.0 | 0.00 | 0.00 | 0.00 | 90 | 1007.6 |
| 20260510154732 | 59 | 215 | 2.0 | 3.0 | 0.00 | 0.00 | 0.00 | 92 | 1007.3 |
| 20260510154228 | 59 | 150 | 1.0 | 3.0 | 0.00 | 0.00 | 0.00 | 91 | 1007.3 |
| 20260510153723 | 60 | 178 | 3.0 | 3.0 | 0.00 | 0.00 | 0.00 | 91 | 1007.3 |
| 20260510153219 | 59 | 166 | 0.0 | 3.0 | 0.00 | 0.00 | 0.00 | 93 | 1007.6 |
| 20260510152716 | 59 | 127 | 1.0 | 2.0 | 0.00 | 0.00 | 0.00 | 93 | 1007.9 |
| 20260510152212 | 58 | 185 | 1.0 | 4.0 | 0.00 | 0.00 | 0.00 | 93 | 1007.9 |
| 20260510151709 | 58 | 130 | 2.0 | 3.0 | 0.00 | 0.00 | 0.00 | 94 | 1007.9 |
| 20260510151208 | 58 | 183 | 1.0 | 2.0 | 0.00 | 0.00 | 0.00 | 95 | 1007.6 |
| 20260510150703 | 57 | 42 | 1.0 | 2.0 | 0.00 | 0.00 | 0.00 | 96 | 1007.9 |
| 20260510150158 | 57 | 191 | 0.0 | 2.0 | 0.00 | 0.00 | 0.00 | 97 | 1007.9 |
| 20260510145655 | 56 | 337 | 1.0 | 2.0 | 0.00 | 0.00 | 0.00 | 98 | 1007.9 |
| 20260510145152 | 56 | 156 | 0.0 | 1.0 | 0.00 | 0.00 | 0.00 | 99 | 1007.9 |
| 20260510144647 | 56 | 168 | 0.0 | 1.0 | 0.00 | 0.00 | 0.00 | 99 | 1007.6 |
| 20260510144144 | 56 | 137 | 1.0 | 2.0 | 0.00 | 0.00 | 0.00 | 99 | 1007.6 |
| 20260510143639 | 55 | 137 | 0.0 | 1.0 | 0.00 | 0.00 | 0.00 | 99 | 1007.6 |
| 20260510143136 | 55 | 131 | 0.0 | 2.0 | 0.00 | 0.00 | 0.00 | 99 | 1007.6 |
| 20260510142633 | 55 | 173 | 0.0 | 1.0 | 0.00 | 0.00 | 0.00 | 99 | 1007.6 |
| 20260510142129 | 55 | 177 | 1.0 | 2.0 | 0.00 | 0.00 | 0.00 | 99 | 1007.3 |
| 20260510141626 | 55 | 139 | 0.0 | 1.0 | 0.00 | 0.00 | 0.00 | 99 | 1007.3 |
| 20260510141125 | 55 | 178 | 0.0 | 1.0 | 0.00 | 0.00 | 0.00 | 99 | 1007.3 |
| 20260510140621 | 55 | 272 | 1.0 | 2.0 | 0.00 | 0.00 | 0.00 | 99 | 1007.3 |
| 20260510140120 | 55 | 167 | 0.0 | 1.0 | 0.00 | 0.00 | 0.00 | 99 | 1007.3 |
| 20260510135615 | 54 | 245 | 1.0 | 2.0 | 0.00 | 0.00 | 0.00 | 99 | 1007.3 |
| 20260510135112 | 55 | 193 | 1.0 | 2.0 | 0.00 | 0.00 | 0.00 | 99 | 1007.3 |
| 20260510134609 | 54 | 192 | 0.0 | 0.0 | 0.00 | 0.00 | 0.00 | 99 | 1007.3 |
| 20260510134106 | 54 | 198 | 0.0 | 3.0 | 0.00 | 0.00 | 0.00 | 99 | 1007.3 |
| 20260510133602 | 54 | 172 | 0.0 | 0.0 | 0.00 | 0.00 | 0.00 | 99 | 1007.3 |
| 20260510133058 | 53 | 150 | 1.0 | 1.0 | 0.00 | 0.00 | 0.00 | 99 | 1007.3 |
| 20260510132555 | 54 | 202 | 0.0 | 1.0 | 0.00 | 0.00 | 0.00 | 99 | 1006.9 |
| 20260510132052 | 53 | 168 | 0.0 | 0.0 | 0.00 | 0.00 | 0.00 | 99 | 1007.3 |
| 20260510131549 | 53 | 162 | 0.0 | 0.0 | 0.00 | 0.00 | 0.00 | 99 | 1007.3 |
| 20260510131046 | 53 | 160 | 0.0 | 0.0 | 0.00 | 0.00 | 0.00 | 99 | 1007.3 |
| 20260510130543 | 53 | 178 | 0.0 | 0.0 | 0.00 | 0.00 | 0.00 | 99 | 1007.3 |
| 20260510130041 | 52 | 180 | 0.0 | 0.0 | 0.00 | 0.00 | 0.00 | 99 | 1007.3 |
| 20260510125536 | 53 | 163 | 0.0 | 0.0 | 0.00 | 0.00 | 0.00 | 99 | 1007.3 |
| 20260510125033 | 53 | 169 | 0.0 | 0.0 | 0.00 | 0.00 | 0.00 | 99 | 1007.3 |
| 20260510124530 | 53 | 160 | 0.0 | 0.0 | 0.00 | 0.00 | 0.00 | 99 | 1007.3 |
| 20260510124027 | 52 | 164 | 0.0 | 1.0 | 0.00 | 0.00 | 0.00 | 99 | 1006.9 |
| 20260510123522 | 52 | 157 | 0.0 | 0.0 | 0.00 | 0.00 | 0.00 | 99 | 1006.9 |
| 20260510123018 | 53 | 185 | 0.0 | 0.0 | 0.00 | 0.00 | 0.00 | 99 | 1006.6 |
| 20260510122514 | 52 | 168 | 0.0 | 0.0 | 0.00 | 0.00 | 0.00 | 99 | 1006.9 |
| 20260510122010 | 52 | 175 | 0.0 | 0.0 | 0.00 | 0.00 | 0.00 | 99 | 1006.9 |
| 20260510121507 | 52 | 171 | 0.0 | 1.0 | 0.00 | 0.00 | 0.00 | 99 | 1006.6 |
| 20260510121005 | 51 | 211 | 0.0 | 1.0 | 0.00 | 0.00 | 0.00 | 99 | 1006.6 |
| 20260510120502 | 51 | 170 | 0.0 | 1.0 | 0.00 | 0.00 | 0.00 | 99 | 1006.9 |
| 20260510115957 | 51 | 183 | 0.0 | 0.0 | 0.00 | 0.00 | 0.00 | 99 | 1006.6 |
| 20260510115455 | 51 | 199 | 0.0 | 0.0 | 0.00 | 0.00 | 0.00 | 99 | 1006.6 |
| 20260510114950 | 51 | 169 | 0.0 | 0.0 | 0.00 | 0.00 | 0.00 | 99 | 1006.9 |
| 20260510114448 | 51 | 166 | 0.0 | 0.0 | 0.00 | 0.00 | 0.00 | 99 | 1006.6 |
| 20260510113943 | 51 | 185 | 0.0 | 0.0 | 0.00 | 0.00 | 0.00 | 99 | 1006.2 |
| 20260510113438 | 51 | 161 | 0.0 | 0.0 | 0.00 | 0.00 | 0.00 | 99 | 1006.2 |
| 20260510112937 | 51 | 174 | 0.0 | 0.0 | 0.00 | 0.00 | 0.00 | 99 | 1006.2 |
| 20260510112434 | 51 | 154 | 0.0 | 0.0 | 0.00 | 0.00 | 0.00 | 99 | 1006.2 |
| 20260510111930 | 51 | 161 | 0.0 | 0.0 | 0.00 | 0.00 | 0.00 | 99 | 1006.2 |
| 20260510111426 | 51 | 157 | 0.0 | 0.0 | 0.00 | 0.00 | 0.00 | 99 | 1006.2 |
| 20260510110922 | 51 | 202 | 1.0 | 1.0 | 0.00 | 0.00 | 0.00 | 99 | 1006.2 |
| 20260510110418 | 50 | 168 | 0.0 | 0.0 | 0.00 | 0.00 | 0.00 | 99 | 1006.2 |
| 20260510105914 | 50 | 157 | 0.0 | 0.0 | 0.00 | 0.00 | 0.00 | 99 | 1006.2 |
| 20260510105409 | 50 | 166 | 0.0 | 0.0 | 0.00 | 0.00 | 0.00 | 99 | 1006.2 |
| 20260510104905 | 50 | 151 | 0.0 | 0.0 | 0.00 | 0.00 | 0.00 | 99 | 1006.2 |
| 20260510104402 | 50 | 171 | 0.0 | 0.0 | 0.00 | 0.00 | 0.00 | 99 | 1006.2 |
| 20260510103858 | 50 | 168 | 0.0 | 0.0 | 0.00 | 0.00 | 0.00 | 99 | 1005.9 |
| 20260510103355 | 50 | 154 | 0.0 | 1.0 | 0.00 | 0.00 | 0.00 | 99 | 1005.9 |
| 20260510102850 | 50 | 160 | 1.0 | 1.0 | 0.00 | 0.00 | 0.00 | 99 | 1005.9 |
| 20260510102341 | 50 | 171 | 0.0 | 0.0 | 0.00 | 0.00 | 0.00 | 99 | 1005.9 |
| 20260510101838 | 50 | 167 | 0.0 | 0.0 | 0.00 | 0.00 | 0.00 | 99 | 1005.6 |
| 20260510101337 | 50 | 160 | 0.0 | 0.0 | 0.00 | 0.00 | 0.00 | 99 | 1005.9 |
| 20260510100832 | 50 | 150 | 0.0 | 1.0 | 0.00 | 0.00 | 0.00 | 99 | 1005.9 |
| 20260510100330 | 50 | 158 | 0.0 | 0.0 | 0.00 | 0.00 | 0.00 | 99 | 1005.9 |
| 20260510095826 | 50 | 199 | 1.0 | 1.0 | 0.00 | 0.00 | 0.00 | 99 | 1005.9 |
| 20260510095321 | 50 | 162 | 0.0 | 0.0 | 0.00 | 0.00 | 0.00 | 99 | 1005.6 |
| 20260510094821 | 50 | 159 | 0.0 | 1.0 | 0.00 | 0.00 | 0.00 | 99 | 1005.9 |
| 20260510094316 | 50 | 192 | 0.0 | 0.0 | 0.00 | 0.00 | 0.00 | 99 | 1005.9 |
| 20260510093813 | 50 | 163 | 0.0 | 0.0 | 0.00 | 0.00 | 0.00 | 99 | 1006.2 |
| 20260510093309 | 50 | 158 | 0.0 | 0.0 | 0.00 | 0.00 | 0.00 | 99 | 1006.2 |
| 20260510092805 | 50 | 147 | 0.0 | 0.0 | 0.00 | 0.00 | 0.00 | 99 | 1006.2 |
| 20260510092301 | 50 | 161 | 0.0 | 0.0 | 0.00 | 0.00 | 0.00 | 99 | 1006.2 |
| 20260510091756 | 50 | 162 | 0.0 | 0.0 | 0.00 | 0.00 | 0.00 | 99 | 1006.2 |
| 20260510091254 | 50 | 159 | 0.0 | 0.0 | 0.00 | 0.00 | 0.00 | 99 | 1006.2 |
| 20260510090751 | 50 | 167 | 0.0 | 0.0 | 0.00 | 0.00 | 0.00 | 99 | 1006.2 |
| 20260510090248 | 50 | 162 | 0.0 | 0.0 | 0.00 | 0.00 | 0.00 | 99 | 1006.2 |
| 20260510085743 | 50 | 173 | 0.0 | 0.0 | 0.00 | 0.00 | 0.00 | 99 | 1006.2 |
| 20260510085238 | 50 | 160 | 0.0 | 0.0 | 0.00 | 0.00 | 0.00 | 99 | 1006.2 |
| 20260510084734 | 50 | 162 | 0.0 | 0.0 | 0.00 | 0.00 | 0.00 | 99 | 1006.2 |
| 20260510084231 | 50 | 160 | 0.0 | 0.0 | 0.00 | 0.00 | 0.00 | 99 | 1006.6 |
| 20260510083727 | 50 | 178 | 0.0 | 0.0 | 0.00 | 0.00 | 0.00 | 99 | 1006.2 |
| 20260510083225 | 50 | 177 | 0.0 | 0.0 | 0.00 | 0.00 | 0.00 | 99 | 1006.6 |
| 20260510082720 | 50 | 225 | 0.0 | 0.0 | 0.00 | 0.00 | 0.00 | 99 | 1006.6 |
| 20260510082217 | 50 | 165 | 0.0 | 0.0 | 0.00 | 0.00 | 0.00 | 99 | 1006.2 |
| 20260510081716 | 50 | 239 | 0.0 | 2.0 | 0.00 | 0.00 | 0.00 | 99 | 1006.2 |
| 20260510081212 | 50 | 196 | 0.0 | 2.0 | 0.00 | 0.00 | 0.00 | 99 | 1006.6 |
| 20260510080707 | 50 | 144 | 0.0 | 0.0 | 0.00 | 0.00 | 0.00 | 99 | 1005.9 |
| 20260510080204 | 50 | 151 | 0.0 | 0.0 | 0.00 | 0.00 | 0.00 | 99 | 1006.2 |
| 20260510075700 | 50 | 164 | 0.0 | 0.0 | 0.00 | 0.00 | 0.00 | 99 | 1005.6 |
| 20260510075158 | 50 | 159 | 0.0 | 0.0 | 0.00 | 0.00 | 0.00 | 99 | 1005.6 |
| 20260510074655 | 50 | 171 | 0.0 | 0.0 | 0.00 | 0.00 | 0.00 | 99 | 1005.6 |
| 20260510074151 | 50 | 178 | 0.0 | 0.0 | 0.00 | 0.00 | 0.00 | 99 | 1005.6 |
| 20260510073648 | 50 | 158 | 0.0 | 0.0 | 0.00 | 0.00 | 0.00 | 99 | 1005.6 |
| 20260510073144 | 50 | 159 | 0.0 | 0.0 | 0.00 | 0.00 | 0.00 | 99 | 1005.6 |
| 20260510072640 | 50 | 159 | 0.0 | 0.0 | 0.00 | 0.00 | 0.00 | 99 | 1005.6 |
| 20260510072136 | 50 | 162 | 0.0 | 0.0 | 0.00 | 0.00 | 0.00 | 99 | 1005.6 |
| 20260510071632 | 50 | 162 | 0.0 | 0.0 | 0.00 | 0.00 | 0.00 | 99 | 1005.9 |
| 20260510071130 | 50 | 162 | 0.0 | 0.0 | 0.00 | 0.00 | 0.00 | 99 | 1005.6 |
| 20260510070628 | 50 | 162 | 0.0 | 0.0 | 0.00 | 0.00 | 0.00 | 99 | 1005.9 |
| 20260510070125 | 50 | 162 | 0.0 | 0.0 | 0.00 | 0.00 | 0.00 | 99 | 1005.6 |
| 20260510065620 | 50 | 200 | 0.0 | 0.0 | 0.00 | 0.00 | 0.00 | 99 | 1005.9 |
| 20260510065116 | 50 | 150 | 0.0 | 0.0 | 0.00 | 0.00 | 0.00 | 99 | 1005.9 |
| 20260510064613 | 51 | 155 | 0.0 | 0.0 | 0.00 | 0.00 | 0.00 | 99 | 1005.9 |
| 20260510064110 | 50 | 154 | 0.0 | 0.0 | 0.00 | 0.00 | 0.00 | 99 | 1005.6 |
| 20260510063607 | 50 | 158 | 0.0 | 0.0 | 0.00 | 0.00 | 0.00 | 99 | 1005.9 |
| 20260510063104 | 50 | 162 | 0.0 | 0.0 | 0.00 | 0.00 | 0.00 | 99 | 1005.9 |
| 20260510062559 | 51 | 173 | 0.0 | 0.0 | 0.00 | 0.00 | 0.00 | 99 | 1005.6 |
| 20260510062055 | 50 | 160 | 0.0 | 0.0 | 0.00 | 0.00 | 0.00 | 99 | 1005.6 |
| 20260510061551 | 50 | 148 | 0.0 | 0.0 | 0.00 | 0.00 | 0.00 | 99 | 1005.6 |
| 20260510061048 | 50 | 208 | 0.0 | 0.0 | 0.00 | 0.00 | 0.00 | 99 | 1005.6 |
| 20260510060545 | 50 | 175 | 0.0 | 0.0 | 0.00 | 0.00 | 0.00 | 99 | 1005.6 |
| 20260510060041 | 50 | 164 | 0.0 | 0.0 | 0.00 | 0.00 | 0.00 | 99 | 1005.6 |
| 20260510055537 | 50 | 157 | 0.0 | 0.0 | 0.00 | 0.00 | 0.00 | 99 | 1005.2 |
| 20260510055036 | 50 | 157 | 0.0 | 1.0 | 0.00 | 0.00 | 0.00 | 99 | 1005.6 |
| 20260510054531 | 50 | 157 | 0.0 | 0.0 | 0.00 | 0.00 | 0.00 | 99 | 1005.6 |
| 20260510054026 | 51 | 157 | 0.0 | 0.0 | 0.00 | 0.00 | 0.00 | 99 | 1005.6 |
| 20260510053521 | 51 | 147 | 0.0 | 1.0 | 0.00 | 0.00 | 0.00 | 99 | 1005.6 |
| 20260510053018 | 51 | 163 | 0.0 | 0.0 | 0.00 | 0.00 | 0.00 | 99 | 1005.6 |
| 20260510052514 | 51 | 161 | 0.0 | 0.0 | 0.00 | 0.00 | 0.00 | 99 | 1005.9 |
| 20260510052010 | 51 | 171 | 0.0 | 0.0 | 0.00 | 0.00 | 0.00 | 99 | 1005.6 |
| 20260510051506 | 51 | 165 | 0.0 | 0.0 | 0.00 | 0.00 | 0.00 | 99 | 1005.6 |
| 20260510051003 | 51 | 172 | 0.0 | 0.0 | 0.00 | 0.00 | 0.00 | 99 | 1005.9 |
| 20260510050500 | 51 | 167 | 0.0 | 0.0 | 0.00 | 0.00 | 0.00 | 99 | 1005.6 |
| 20260510045957 | 51 | 165 | 0.0 | 0.0 | 0.00 | 0.00 | 0.00 | 99 | 1005.6 |
| 20260510045454 | 51 | 164 | 0.0 | 0.0 | 0.00 | 0.00 | 0.00 | 99 | 1005.6 |
| 20260510044950 | 51 | 166 | 0.0 | 0.0 | 0.00 | 0.00 | 0.00 | 99 | 1005.6 |
| 20260510044447 | 51 | 182 | 0.0 | 1.0 | 0.00 | 0.00 | 0.00 | 99 | 1005.9 |
| 20260510043944 | 51 | 174 | 0.0 | 0.0 | 0.00 | 0.00 | 0.00 | 99 | 1005.6 |
| 20260510043440 | 51 | 167 | 0.0 | 0.0 | 0.00 | 0.00 | 0.00 | 99 | 1005.6 |
| 20260510042938 | 51 | 157 | 0.0 | 0.0 | 0.00 | 0.00 | 0.00 | 99 | 1005.6 |
| 20260510042434 | 51 | 157 | 0.0 | 0.0 | 0.00 | 0.00 | 0.00 | 99 | 1005.6 |
| 20260510041930 | 51 | 152 | 0.0 | 0.0 | 0.00 | 0.00 | 0.00 | 99 | 1005.6 |
| 20260510041427 | 51 | 169 | 0.0 | 0.0 | 0.00 | 0.00 | 0.00 | 99 | 1005.6 |
| 20260510040925 | 51 | 166 | 0.0 | 0.0 | 0.00 | 0.00 | 0.00 | 99 | 1005.6 |
| 20260510040422 | 51 | 158 | 0.0 | 0.0 | 0.00 | 0.00 | 0.00 | 99 | 1005.6 |
| 20260510035917 | 51 | 163 | 0.0 | 0.0 | 0.00 | 0.00 | 0.00 | 99 | 1005.6 |
| 20260510035414 | 51 | 168 | 0.0 | 0.0 | 0.00 | 0.00 | 0.00 | 99 | 1005.2 |
| 20260510034908 | 51 | 168 | 0.0 | 0.0 | 0.00 | 0.00 | 0.00 | 99 | 1005.6 |
| 20260510034407 | 51 | 156 | 0.0 | 0.0 | 0.00 | 0.00 | 0.00 | 99 | 1004.9 |
| 20260510033902 | 51 | 158 | 0.0 | 0.0 | 0.00 | 0.00 | 0.00 | 99 | 1005.2 |
| 20260510033359 | 51 | 157 | 0.0 | 0.0 | 0.00 | 0.00 | 0.00 | 99 | 1005.2 |
| 20260510032855 | 51 | 174 | 0.0 | 0.0 | 0.00 | 0.00 | 0.00 | 99 | 1005.6 |
| 20260510032352 | 51 | 161 | 0.0 | 0.0 | 0.00 | 0.00 | 0.00 | 99 | 1005.6 |
| 20260510031848 | 51 | 162 | 0.0 | 0.0 | 0.00 | 0.00 | 0.00 | 99 | 1005.2 |
| 20260510031344 | 51 | 192 | 0.0 | 0.0 | 0.00 | 0.00 | 0.00 | 99 | 1005.6 |
| 20260510030843 | 51 | 123 | 0.0 | 0.0 | 0.00 | 0.00 | 0.00 | 99 | 1005.6 |
| 20260510030340 | 51 | 160 | 0.0 | 0.0 | 0.00 | 0.00 | 0.00 | 99 | 1005.6 |
| 20260510025838 | 51 | 163 | 0.0 | 0.0 | 0.00 | 0.00 | 0.00 | 99 | 1005.6 |
| 20260510025335 | 51 | 168 | 0.0 | 0.0 | 0.00 | 0.00 | 0.00 | 99 | 1005.6 |
| 20260510024831 | 51 | 171 | 0.0 | 2.0 | 0.00 | 0.00 | 0.00 | 99 | 1005.6 |
| 20260510024329 | 51 | 160 | 0.0 | 0.0 | 0.00 | 0.00 | 0.00 | 99 | 1005.6 |
| 20260510023825 | 51 | 187 | 0.0 | 0.0 | 0.00 | 0.00 | 0.00 | 99 | 1005.6 |
| 20260510023321 | 51 | 179 | 0.0 | 0.0 | 0.00 | 0.00 | 0.00 | 99 | 1005.6 |
| 20260510022819 | 51 | 164 | 0.0 | 0.0 | 0.00 | 0.00 | 0.00 | 99 | 1005.6 |
| 20260510022317 | 51 | 174 | 0.0 | 0.0 | 0.00 | 0.00 | 0.00 | 99 | 1005.6 |
| 20260510021817 | 51 | 169 | 0.0 | 0.0 | 0.00 | 0.00 | 0.00 | 99 | 1005.6 |
| 20260510021315 | 51 | 178 | 0.0 | 0.0 | 0.00 | 0.00 | 0.00 | 99 | 1005.6 |
| 20260510020811 | 51 | 194 | 0.0 | 0.0 | 0.00 | 0.00 | 0.00 | 99 | 1005.2 |
| 20260510020306 | 51 | 157 | 0.0 | 0.0 | 0.00 | 0.00 | 0.00 | 99 | 1005.6 |
| 20260510015802 | 51 | 162 | 0.0 | 0.0 | 0.00 | 0.00 | 0.00 | 99 | 1005.2 |
| 20260510015258 | 51 | 158 | 0.0 | 0.0 | 0.00 | 0.00 | 0.00 | 99 | 1005.6 |
| 20260510014753 | 51 | 160 | 0.0 | 0.0 | 0.00 | 0.00 | 0.00 | 99 | 1005.6 |
| 20260510014250 | 50 | 167 | 0.0 | 0.0 | 0.00 | 0.00 | 0.00 | 99 | 1005.2 |
| 20260510013746 | 50 | 165 | 0.0 | 0.0 | 0.00 | 0.00 | 0.00 | 99 | 1005.6 |
| 20260510013242 | 50 | 158 | 0.0 | 0.0 | 0.00 | 0.00 | 0.00 | 99 | 1005.6 |
| 20260510012737 | 50 | 142 | 0.0 | 0.0 | 0.00 | 0.00 | 0.00 | 99 | 1005.2 |
| 20260510012232 | 51 | 164 | 0.0 | 0.0 | 0.00 | 0.00 | 0.00 | 99 | 1005.2 |
| 20260510011727 | 51 | 214 | 0.0 | 0.0 | 0.00 | 0.00 | 0.00 | 99 | 1005.2 |
| 20260510011222 | 51 | 170 | 0.0 | 0.0 | 0.00 | 0.00 | 0.00 | 99 | 1004.9 |
| 20260510010719 | 51 | 182 | 0.0 | 0.0 | 0.00 | 0.00 | 0.00 | 99 | 1005.2 |
| 20260510010215 | 51 | 149 | 0.0 | 0.0 | 0.00 | 0.00 | 0.00 | 99 | 1004.9 |
| 20260510005713 | 51 | 161 | 0.0 | 0.0 | 0.00 | 0.00 | 0.00 | 99 | 1004.9 |
| 20260510005209 | 51 | 157 | 0.0 | 0.0 | 0.00 | 0.00 | 0.00 | 99 | 1004.5 |
| 20260510004707 | 51 | 168 | 0.0 | 0.0 | 0.00 | 0.00 | 0.00 | 99 | 1004.9 |
| 20260510004205 | 51 | 165 | 0.0 | 0.0 | 0.00 | 0.00 | 0.00 | 99 | 1004.9 |
| 20260510003702 | 51 | 164 | 0.0 | 0.0 | 0.00 | 0.00 | 0.00 | 99 | 1004.9 |
| 20260510003158 | 52 | 168 | 0.0 | 0.0 | 0.00 | 0.00 | 0.00 | 99 | 1004.5 |
| 20260510002657 | 52 | 165 | 0.0 | 0.0 | 0.00 | 0.00 | 0.00 | 99 | 1004.9 |
| 20260510002155 | 52 | 168 | 0.0 | 0.0 | 0.00 | 0.00 | 0.00 | 99 | 1004.5 |
| 20260510001651 | 52 | 161 | 0.0 | 0.0 | 0.00 | 0.00 | 0.00 | 99 | 1004.5 |
| 20260510001150 | 52 | 161 | 0.0 | 0.0 | 0.00 | 0.00 | 0.00 | 99 | 1004.5 |
| 20260510000650 | 52 | 166 | 0.0 | 1.0 | 0.00 | 0.00 | 0.00 | 99 | 1004.5 |
| 20260510000148 | 53 | 158 | 0.0 | 1.0 | 0.00 | 0.00 | 0.00 | 99 | 1004.5 |
| 20260509235645 | 53 | 160 | 0.0 | 1.0 | 0.00 | 0.00 | 0.00 | 99 | 1004.5 |
| 20260509235141 | 53 | 161 | 0.0 | 0.0 | 0.00 | 0.00 | 0.00 | 99 | 1004.9 |
| 20260509234637 | 53 | 176 | 0.0 | 0.0 | 0.00 | 0.00 | 0.00 | 99 | 1004.5 |
| 20260509234135 | 53 | 175 | 0.0 | 0.0 | 0.00 | 0.00 | 0.00 | 99 | 1004.9 |
| 20260509233633 | 53 | 176 | 0.0 | 0.0 | 0.00 | 0.00 | 0.00 | 99 | 1004.5 |
| 20260509233130 | 53 | 157 | 0.0 | 0.0 | 0.00 | 0.00 | 0.00 | 99 | 1004.9 |
| 20260509232626 | 53 | 181 | 0.0 | 0.0 | 0.00 | 0.00 | 0.00 | 99 | 1004.9 |
| 20260509232123 | 53 | 173 | 0.0 | 0.0 | 0.00 | 0.00 | 0.00 | 99 | 1004.9 |
| 20260509231619 | 53 | 153 | 0.0 | 1.0 | 0.00 | 0.00 | 0.00 | 99 | 1004.9 |
| 20260509231117 | 53 | 138 | 0.0 | 1.0 | 0.00 | 0.00 | 0.00 | 99 | 1004.9 |
| 20260509230614 | 53 | 174 | 0.0 | 0.0 | 0.00 | 0.00 | 0.00 | 99 | 1004.9 |
| 20260509230111 | 53 | 184 | 0.0 | 0.0 | 0.00 | 0.00 | 0.00 | 99 | 1005.2 |
| 20260509225607 | 53 | 223 | 1.0 | 2.0 | 0.00 | 0.00 | 0.00 | 99 | 1004.9 |
| 20260509225102 | 53 | 190 | 0.0 | 2.0 | 0.00 | 0.00 | 0.00 | 99 | 1004.9 |
| 20260509224557 | 53 | 148 | 1.0 | 1.0 | 0.00 | 0.00 | 0.00 | 99 | 1004.9 |
| 20260509224055 | 53 | 125 | 1.0 | 2.0 | 0.00 | 0.00 | 0.00 | 99 | 1004.9 |
| 20260509223552 | 53 | 171 | 0.0 | 0.0 | 0.00 | 0.00 | 0.00 | 99 | 1005.2 |
| 20260509223050 | 53 | 155 | 0.0 | 0.0 | 0.00 | 0.00 | 0.00 | 99 | 1005.2 |
| 20260509222545 | 53 | 158 | 0.0 | 0.0 | 0.00 | 0.00 | 0.00 | 99 | 1005.6 |
| 20260509222041 | 53 | 152 | 0.0 | 0.0 | 0.00 | 0.00 | 0.00 | 99 | 1005.2 |
| 20260509221537 | 53 | 152 | 0.0 | 0.0 | 0.00 | 0.00 | 0.00 | 99 | 1005.6 |
| 20260509221033 | 53 | 173 | 0.0 | 0.0 | 0.00 | 0.00 | 0.00 | 99 | 1005.6 |
| 20260509220529 | 53 | 193 | 1.0 | 1.0 | 0.00 | 0.00 | 0.00 | 99 | 1005.6 |
| 20260509220026 | 53 | 141 | 1.0 | 1.0 | 0.00 | 0.00 | 0.00 | 99 | 1005.6 |
| 20260509215521 | 54 | 139 | 0.0 | 0.0 | 0.00 | 0.00 | 0.00 | 99 | 1005.6 |
| 20260509215019 | 54 | 156 | 0.0 | 1.0 | 0.00 | 0.00 | 0.00 | 99 | 1005.9 |
| 20260509214516 | 54 | 138 | 0.0 | 0.0 | 0.00 | 0.00 | 0.00 | 99 | 1005.9 |